Airfield :
LOGIN :

Register | Disclaimer

   EN    FR    IT 

 










Legend :    VFR   Marginal VFR   IFR   Intensive IFR   Very Intensive IFR
Visi :
Ceiling :
>= 8 km
>= 3000ft
5 to 8 km
1000 to 3000 ft
1500m to 5 km
500 to 1000 ft
800 to 1500m
200 to 500 ft
< 800m
< 200 ft
Symbols :   Thunderstorms  Fog  Heavy snow  Heavy precipitations  Wind > 20 kt
SIGMETs :     Misc.  Thunderstorms  Icing  Turbulence  Mountain Waves  Volcanic Ashes







- Airport Elevation : 423 ft
- IATA code : PIS
- Download approach charts


LFBI - Poitiers

CURRENT METAR :
  • 220900Z AUTO 17007KT 8000 FEW001 06/06 Q1012 NOSIG

EXPIRED METARs :
  • 220830Z AUTO 16006KT 1800 BR VV/// 05/05 Q1012 BECMG CAVOK
  • 220800Z AUTO 17007KT 1000 R21/1800U BCFG VV/// 05/05 Q1012 BECMG CAVOK
  • 220730Z AUTO 18008KT 0600 0500 R21/0800D FG VV/// 06/06 Q1012 BECMG CAVOK
  • 220700Z AUTO 17007KT 0600 0550 R21/0800N FG VV/// 06/06 Q1012 BECMG CAVOK
  • 220630Z AUTO 17006KT 0550 0500 R21/0800U FG VV/// 05/05 Q1012 BECMG CAVOK

TAF AMD TAF LFBI
Valid from the 22 at 08:00 until the 23 at 06:00 UTC


220831Z 2208/2306 18005KT 0600 FG VV///
BECMG 2208/2210 CAVOK
BECMG 2211/2213 18010G20KT
TEMPO 2220/2303 18020G35KT
BECMG 2303/2306 22020G35KT BKN030
No reported NOTAMs for that airfield.



MET'MAP, your aeronautical weather chart ! - Copyright ORBIFLY December 2007 - Disclaimer

ORBIFLY MET'MAP TEAM :

Programming & Development : Alexandra Zaïnal
Concept & Development : Baudouin d'Aumeries
Co-Development & Prog : Marc-Olivier Méhu
Technical & hardware support : Manuel Goepfert

Contact : metmap@orbifly.com




SOURCES & CREDITS :

   NOAA